Time;durP1;ratioP1;P1;durP2;ratioP2;P2;SDS_P1;SDS_P2;PMS_P1;PMS_P2;Temp;Humidity;BMP_temperature;BMP_pressure;BME280_temperature;BME280_humidity;BME280_pressure;Samples;Min_cycle;Max_cycle;Signal;HPM_P1;HPM_P2
2022/08/29 00:02:40;;;;;;;4.85;1.30;;;12.50;99.90;;;;;;7310228;32;20667;-61
2022/08/29 00:06:42;;;;;;;5.43;1.50;;;12.50;99.90;;;;;;7315473;32;20791;-60
2022/08/29 00:10:45;;;;;;;3.40;1.40;;;12.50;99.90;;;;;;7313126;32;20193;-60
2022/08/29 00:14:46;;;;;;;6.43;1.42;;;12.40;99.90;;;;;;7301594;32;20127;-61
2022/08/29 00:18:48;;;;;;;5.32;1.30;;;12.40;99.90;;;;;;7312221;32;20255;-61
2022/08/29 00:22:50;;;;;;;5.25;1.35;;;12.30;99.90;;;;;;7314130;32;20205;-61
2022/08/29 00:27:00;;;;;;;2.17;1.08;;;12.20;99.90;;;;;;7310911;32;20805;-61
2022/08/29 00:31:02;;;;;;;3.80;1.50;;;12.10;99.90;;;;;;7295969;32;20135;-62
2022/08/29 00:35:13;;;;;;;3.70;1.30;;;12.00;99.90;;;;;;7316400;32;20131;-60
2022/08/29 00:39:14;;;;;;;3.40;1.45;;;11.90;99.90;;;;;;7313493;32;20124;-61
2022/08/29 00:43:19;;;;;;;2.70;1.10;;;11.80;99.90;;;;;;7302305;32;20285;-61
2022/08/29 00:47:35;;;;;;;6.45;1.70;;;11.70;99.90;;;;;;7314959;32;20244;-61
2022/08/29 00:51:39;;;;;;;5.57;1.60;;;11.60;99.90;;;;;;7310196;32;20179;-61
2022/08/29 00:55:44;;;;;;;4.93;1.42;;;11.60;99.90;;;;;;7314293;32;20189;-61
2022/08/29 00:59:52;;;;;;;4.20;1.30;;;11.50;99.90;;;;;;7316714;32;20485;-61
2022/08/29 01:03:54;;;;;;;4.53;1.37;;;11.50;99.90;;;;;;7311016;32;20727;-61
2022/08/29 01:07:56;;;;;;;3.95;1.42;;;11.50;99.90;;;;;;7305703;32;20222;-61
2022/08/29 01:12:16;;;;;;;3.55;1.42;;;11.30;99.90;;;;;;7311699;32;20357;-61
2022/08/29 01:16:19;;;;;;;2.83;1.37;;;11.20;99.90;;;;;;7309034;32;20104;-61
2022/08/29 01:20:59;;;;;;;2.30;1.37;;;11.30;99.90;;;;;;7301758;32;20155;-61
2022/08/29 01:25:11;;;;;;;3.33;1.40;;;11.20;99.90;;;;;;7310993;32;20139;-61
2022/08/29 01:29:14;;;;;;;2.67;1.37;;;11.10;99.90;;;;;;7305861;32;20107;-61
2022/08/29 01:33:16;;;;;;;7.22;1.60;;;11.10;99.90;;;;;;7311852;32;20115;-61
2022/08/29 01:37:18;;;;;;;5.28;1.40;;;11.00;99.90;;;;;;7314999;32;20431;-60
2022/08/29 01:41:21;;;;;;;6.35;1.73;;;11.00;99.90;;;;;;7315404;32;20129;-61
2022/08/29 01:45:23;;;;;;;4.62;1.40;;;10.90;99.90;;;;;;7300744;32;20254;-61
2022/08/29 01:49:26;;;;;;;5.47;1.50;;;10.80;99.90;;;;;;7316241;32;20155;-61
2022/08/29 01:53:28;;;;;;;4.57;1.48;;;10.80;99.90;;;;;;7312108;32;20402;-61
2022/08/29 01:57:29;;;;;;;4.97;1.27;;;10.70;99.90;;;;;;7309163;32;20129;-59
2022/08/29 02:01:45;;;;;;;5.60;1.30;;;10.60;99.90;;;;;;7310529;32;20137;-60
2022/08/29 02:05:47;;;;;;;3.67;1.20;;;10.60;99.90;;;;;;7315379;32;20230;-61
2022/08/29 02:09:49;;;;;;;3.53;1.52;;;10.70;99.90;;;;;;7311833;32;20269;-61
2022/08/29 02:13:56;;;;;;;5.03;1.33;;;10.50;99.90;;;;;;7318192;32;20262;-61
2022/08/29 02:17:57;;;;;;;8.57;1.42;;;10.40;99.90;;;;;;7314714;32;20119;-61
2022/08/29 02:22:01;;;;;;;3.03;1.25;;;10.40;99.90;;;;;;7312259;32;20112;-61
2022/08/29 02:26:04;;;;;;;4.75;1.60;;;10.30;99.90;;;;;;7308772;32;20725;-62
2022/08/29 02:30:06;;;;;;;4.05;1.50;;;10.30;99.90;;;;;;7311546;32;20571;-60
2022/08/29 02:34:09;;;;;;;4.95;1.67;;;10.20;99.90;;;;;;7313850;32;20218;-62
2022/08/29 02:38:12;;;;;;;3.05;1.12;;;10.20;99.90;;;;;;7315741;32;20208;-61
2022/08/29 02:42:14;;;;;;;3.35;1.60;;;10.20;99.90;;;;;;7307257;32;20194;-61
2022/08/29 02:46:18;;;;;;;5.25;1.62;;;10.20;99.90;;;;;;7300650;32;20139;-61
2022/08/29 02:50:20;;;;;;;5.28;1.23;;;10.10;99.90;;;;;;7311920;32;20120;-61
2022/08/29 02:54:22;;;;;;;4.00;1.30;;;10.10;99.90;;;;;;7317132;32;20239;-61
2022/08/29 02:58:24;;;;;;;3.78;1.42;;;10.10;99.90;;;;;;7303893;32;20326;-60
2022/08/29 03:02:26;;;;;;;3.97;1.40;;;10.00;99.90;;;;;;7314211;32;20100;-60
2022/08/29 03:06:28;;;;;;;7.00;1.52;;;9.90;99.90;;;;;;7319275;32;20194;-60
2022/08/29 03:10:30;;;;;;;4.12;1.48;;;9.90;99.90;;;;;;7309367;32;20168;-61
2022/08/29 03:14:32;;;;;;;6.05;1.35;;;9.90;99.90;;;;;;7321443;32;20118;-60
2022/08/29 03:18:34;;;;;;;5.30;1.55;;;9.90;99.90;;;;;;7320332;32;20440;-60
2022/08/29 03:22:36;;;;;;;4.30;1.65;;;9.90;99.90;;;;;;7304525;32;20512;-61
2022/08/29 03:26:38;;;;;;;2.80;1.58;;;9.80;99.90;;;;;;7321973;32;20135;-60
2022/08/29 03:30:41;;;;;;;4.53;1.60;;;9.80;99.90;;;;;;7303457;32;20169;-60
2022/08/29 03:34:43;;;;;;;6.80;1.60;;;9.80;99.90;;;;;;7314473;32;20211;-60
2022/08/29 03:38:47;;;;;;;5.10;1.45;;;9.80;99.90;;;;;;7319421;32;20791;-60
2022/08/29 03:42:49;;;;;;;4.40;1.33;;;9.70;99.90;;;;;;7312425;32;20224;-59
2022/08/29 03:46:50;;;;;;;2.65;1.20;;;9.70;99.90;;;;;;7299259;32;20183;-60
2022/08/29 03:50:52;;;;;;;3.03;1.42;;;9.70;99.90;;;;;;7306976;32;20235;-60
2022/08/29 03:54:57;;;;;;;4.22;1.60;;;9.70;99.90;;;;;;7317561;32;20118;-59
2022/08/29 03:59:00;;;;;;;3.90;1.37;;;9.60;99.90;;;;;;7311605;32;20150;-59
2022/08/29 04:03:02;;;;;;;8.50;2.37;;;9.70;99.90;;;;;;7313959;32;20245;-59
2022/08/29 04:07:08;;;;;;;2.78;1.15;;;9.70;99.90;;;;;;7314907;32;20108;-58
2022/08/29 04:11:12;;;;;;;3.87;1.70;;;9.60;99.90;;;;;;7314265;32;20511;-59
2022/08/29 04:15:15;;;;;;;4.82;1.60;;;9.60;99.90;;;;;;7318364;32;20420;-60
2022/08/29 04:19:18;;;;;;;5.10;1.62;;;9.60;99.90;;;;;;7304750;32;20465;-59
2022/08/29 04:23:20;;;;;;;4.00;1.40;;;9.50;99.90;;;;;;7307425;32;20180;-61
2022/08/29 04:27:21;;;;;;;4.18;1.45;;;9.50;99.90;;;;;;7316888;32;20107;-60
2022/08/29 04:31:23;;;;;;;5.05;1.83;;;9.50;99.90;;;;;;7311051;32;20226;-60
2022/08/29 04:35:25;;;;;;;3.70;1.45;;;9.40;99.90;;;;;;7307304;32;20172;-59
2022/08/29 04:39:27;;;;;;;2.17;1.48;;;9.50;99.90;;;;;;7310470;32;20100;-59
2022/08/29 04:43:28;;;;;;;7.57;1.67;;;9.50;99.90;;;;;;7315414;32;20278;-59
2022/08/29 04:47:30;;;;;;;4.20;1.67;;;9.40;99.90;;;;;;7311498;32;20222;-65
2022/08/29 04:51:35;;;;;;;4.05;1.95;;;9.50;99.90;;;;;;7308984;32;20197;-66
2022/08/29 04:55:37;;;;;;;4.62;1.27;;;9.50;99.90;;;;;;7300129;32;20317;-67
2022/08/29 04:59:40;;;;;;;5.75;1.75;;;9.50;99.90;;;;;;7312853;32;20125;-69
2022/08/29 05:03:43;;;;;;;8.20;4.22;;;9.50;99.90;;;;;;7309121;32;20107;-68
2022/08/29 05:07:45;;;;;;;3.15;2.05;;;9.50;99.90;;;;;;7302801;32;20217;-68
2022/08/29 05:11:47;;;;;;;6.93;1.95;;;9.50;99.90;;;;;;7310753;32;20136;-66
2022/08/29 05:15:49;;;;;;;4.10;1.77;;;9.60;99.90;;;;;;7302020;32;20222;-67
2022/08/29 05:19:52;;;;;;;3.45;1.70;;;9.70;99.90;;;;;;7306553;32;20207;-64
2022/08/29 05:23:55;;;;;;;3.37;1.95;;;9.70;99.90;;;;;;7293261;32;20181;-63
2022/08/29 05:28:06;;;;;;;4.65;1.80;;;9.80;99.90;;;;;;7293901;32;20160;-64
2022/08/29 05:32:17;;;;;;;45.05;29.83;;;9.90;99.90;;;;;;7311705;32;20111;-64
2022/08/29 05:36:26;;;;;;;7.45;1.98;;;10.00;99.90;;;;;;7305090;32;20133;-64
2022/08/29 05:40:28;;;;;;;6.03;1.80;;;10.10;99.90;;;;;;7314742;32;20497;-62
2022/08/29 05:44:31;;;;;;;6.72;2.10;;;10.20;99.90;;;;;;7310096;32;20112;-64
2022/08/29 05:48:39;;;;;;;8.85;1.90;;;10.30;99.90;;;;;;7304733;32;20749;-63
2022/08/29 05:52:42;;;;;;;9.15;3.28;;;10.40;99.90;;;;;;7313964;32;20205;-64
2022/08/29 05:56:44;;;;;;;7.35;2.22;;;10.50;99.90;;;;;;7298967;32;20321;-63
2022/08/29 06:00:46;;;;;;;6.28;1.85;;;10.70;99.90;;;;;;7292862;32;20116;-64
2022/08/29 06:04:49;;;;;;;5.60;1.60;;;10.80;99.90;;;;;;7315437;32;20107;-64
2022/08/29 06:08:52;;;;;;;6.35;2.08;;;11.00;99.90;;;;;;7315936;32;20215;-64
2022/08/29 06:12:54;;;;;;;6.75;2.25;;;11.30;99.90;;;;;;7304506;32;20116;-64
2022/08/29 06:16:56;;;;;;;6.50;2.20;;;11.50;99.90;;;;;;7313469;32;20153;-64
2022/08/29 06:20:57;;;;;;;8.32;2.67;;;11.80;99.90;;;;;;7321810;32;20173;-63
2022/08/29 06:24:59;;;;;;;8.85;2.17;;;12.10;99.90;;;;;;7314513;32;20216;-64
2022/08/29 06:29:08;;;;;;;7.07;1.92;;;12.30;99.90;;;;;;7314160;32;20269;-62
2022/08/29 06:33:10;;;;;;;7.95;2.40;;;12.70;99.90;;;;;;7314785;32;20195;-63
2022/08/29 06:37:12;;;;;;;9.65;2.30;;;12.90;99.90;;;;;;7325221;32;20862;-62
2022/08/29 06:41:15;;;;;;;6.97;2.00;;;13.10;99.90;;;;;;7317269;32;20168;-62
2022/08/29 06:45:17;;;;;;;7.43;2.45;;;13.20;99.90;;;;;;7299128;32;20267;-61
2022/08/29 06:49:26;;;;;;;7.15;2.45;;;13.50;99.90;;;;;;7301487;32;20179;-64
2022/08/29 06:53:28;;;;;;;8.55;2.20;;;13.60;99.90;;;;;;7304506;32;20193;-64
2022/08/29 06:57:33;;;;;;;5.30;2.10;;;13.70;99.90;;;;;;7292079;32;20313;-62
2022/08/29 07:01:35;;;;;;;7.65;1.83;;;13.90;99.90;;;;;;7316555;32;20224;-61
2022/08/29 07:05:37;;;;;;;5.60;1.95;;;14.00;99.90;;;;;;7316177;32;20206;-61
2022/08/29 07:09:38;;;;;;;4.97;1.70;;;14.10;99.90;;;;;;7305293;32;20815;-61
2022/08/29 07:13:40;;;;;;;13.35;8.63;;;14.20;99.90;;;;;;7308183;32;20308;-62
2022/08/29 07:17:42;;;;;;;9.90;2.40;;;14.30;99.90;;;;;;7309898;32;20123;-61
2022/08/29 07:21:44;;;;;;;9.43;1.98;;;14.50;99.90;;;;;;7309343;32;20169;-61
2022/08/29 07:25:46;;;;;;;6.70;2.30;;;14.70;99.90;;;;;;7317402;32;20407;-63
2022/08/29 07:29:47;;;;;;;4.43;1.80;;;14.90;99.90;;;;;;7309324;32;20678;-61
2022/08/29 07:33:51;;;;;;;8.18;2.28;;;15.00;99.90;;;;;;7310793;32;20234;-61
2022/08/29 07:38:04;;;;;;;6.72;2.15;;;15.20;99.90;;;;;;7308094;32;20191;-61
2022/08/29 07:42:06;;;;;;;13.95;2.25;;;15.40;99.90;;;;;;7311197;32;20193;-62
2022/08/29 07:46:13;;;;;;;7.50;2.40;;;15.60;99.90;;;;;;7316493;32;20135;-60
2022/08/29 07:50:15;;;;;;;10.63;3.75;;;15.80;99.90;;;;;;7305186;32;20560;-62
2022/08/29 07:54:18;;;;;;;10.32;2.30;;;15.90;99.90;;;;;;7308929;32;20241;-61
2022/08/29 07:58:19;;;;;;;8.07;1.77;;;16.00;99.90;;;;;;7306449;32;20257;-62
2022/08/29 08:02:21;;;;;;;5.93;1.85;;;16.20;99.90;;;;;;7297729;32;20603;-61
2022/08/29 08:06:25;;;;;;;7.65;2.45;;;16.30;99.90;;;;;;7308583;32;20284;-61
2022/08/29 08:10:28;;;;;;;7.68;2.10;;;16.50;99.90;;;;;;7305564;32;20231;-61
2022/08/29 08:14:33;;;;;;;10.18;2.33;;;16.80;99.90;;;;;;7304457;32;20187;-61
2022/08/29 08:18:37;;;;;;;6.53;2.30;;;17.10;99.90;;;;;;7308645;32;20179;-61
2022/08/29 08:22:39;;;;;;;11.50;2.22;;;17.10;99.90;;;;;;7308286;32;20269;-61
2022/08/29 08:26:40;;;;;;;5.03;2.10;;;17.20;99.90;;;;;;7313787;32;20131;-62
2022/08/29 08:30:42;;;;;;;15.73;5.20;;;17.10;99.90;;;;;;7301130;32;20690;-62
2022/08/29 08:34:44;;;;;;;5.80;1.80;;;17.30;99.90;;;;;;7315230;32;20193;-61
2022/08/29 08:38:47;;;;;;;7.03;1.95;;;17.30;99.90;;;;;;7307548;32;20171;-62
2022/08/29 08:42:49;;;;;;;5.20;2.00;;;17.60;99.90;;;;;;7301374;32;20185;-62
2022/08/29 08:46:57;;;;;;;10.98;6.37;;;17.60;99.90;;;;;;7304866;32;20571;-62
2022/08/29 08:51:22;;;;;;;9.65;2.65;;;17.70;99.90;;;;;;7310665;32;20166;-63
2022/08/29 08:55:41;;;;;;;9.35;3.22;;;17.70;99.90;;;;;;7311572;32;20167;-62
2022/08/29 08:59:45;;;;;;;8.40;2.30;;;17.70;99.90;;;;;;7311524;32;20349;-63
2022/08/29 09:04:31;;;;;;;6.62;1.90;;;18.10;99.90;;;;;;7310146;32;20241;-64
2022/08/29 09:08:49;;;;;;;7.37;2.22;;;18.10;99.90;;;;;;7310266;32;20222;-62
2022/08/29 09:13:24;;;;;;;8.57;2.20;;;18.70;99.90;;;;;;7307539;32;20276;-63
2022/08/29 09:17:40;;;;;;;7.50;2.05;;;18.70;99.90;;;;;;7308619;32;20206;-63
2022/08/29 09:21:54;;;;;;;6.43;2.00;;;18.90;99.90;;;;;;7302072;32;20111;-64
2022/08/29 09:25:56;;;;;;;7.12;1.90;;;19.10;99.90;;;;;;7308489;32;20115;-62
2022/08/29 09:30:14;;;;;;;5.30;1.90;;;19.20;99.90;;;;;;7302382;32;20134;-63
2022/08/29 09:34:34;;;;;;;6.12;2.22;;;19.10;99.90;;;;;;7311270;32;20143;-63
2022/08/29 09:39:35;;;;;;;5.75;1.70;;;19.00;99.90;;;;;;7306225;32;20568;-63
2022/08/29 09:43:47;;;;;;;5.78;2.00;;;19.50;99.90;;;;;;7308513;32;20251;-64
2022/08/29 09:48:13;;;;;;;3.45;1.52;;;20.80;99.90;;;;;;7309612;32;20681;-64
2022/08/29 09:52:37;;;;;;;6.50;2.40;;;21.70;99.90;;;;;;7305707;32;20845;-64
2022/08/29 09:56:58;;;;;;;7.80;2.00;;;22.30;99.90;;;;;;7319833;32;20822;-62
2022/08/29 10:01:09;;;;;;;5.85;1.90;;;23.00;99.90;;;;;;7310623;32;20233;-63
2022/08/29 10:05:40;;;;;;;4.53;1.90;;;22.50;99.90;;;;;;7314646;32;20199;-65
2022/08/29 10:09:53;;;;;;;6.62;2.30;;;23.50;99.90;;;;;;7284681;32;20176;-64
2022/08/29 10:14:13;;;;;;;8.13;1.87;;;22.80;99.90;;;;;;7307768;32;20113;-65
2022/08/29 10:18:33;;;;;;;6.22;2.30;;;22.30;99.90;;;;;;7309222;32;20112;-64
2022/08/29 10:22:43;;;;;;;5.18;2.25;;;23.10;99.90;;;;;;7313402;32;20103;-63
2022/08/29 10:27:00;;;;;;;6.85;2.50;;;24.30;99.90;;;;;;7308484;32;20621;-64
2022/08/29 10:31:11;;;;;;;8.55;2.58;;;23.90;98.10;;;;;;7312476;32;20131;-65
2022/08/29 10:35:33;;;;;;;8.32;2.30;;;24.60;98.70;;;;;;7314916;32;20147;-64
2022/08/29 10:39:47;;;;;;;7.72;2.22;;;22.60;98.90;;;;;;7311851;32;20126;-57
2022/08/29 10:44:08;;;;;;;7.68;2.60;;;21.90;99.90;;;;;;7318724;32;20523;-56
2022/08/29 10:48:56;;;;;;;7.95;2.78;;;21.70;99.90;;;;;;7315558;32;20187;-57
2022/08/29 10:53:13;;;;;;;6.72;2.47;;;21.40;99.90;;;;;;7239504;32;20202;-56
2022/08/29 10:57:21;;;;;;;;;;;21.00;99.90;;;;;;7285730;32;20610;-57
2022/08/29 11:01:33;;;;;;;;;;;21.70;99.90;;;;;;7307177;32;20019;-57
2022/08/29 11:05:44;;;;;;;6.55;2.22;;;21.70;99.90;;;;;;7315279;32;20060;-57
2022/08/29 11:09:50;;;;;;;8.25;2.35;;;21.50;99.90;;;;;;7309684;32;20151;-57
2022/08/29 11:13:59;;;;;;;6.05;3.70;;;21.60;99.90;;;;;;7315078;32;20173;-68
2022/08/29 11:18:28;;;;;;;7.97;2.42;;;21.10;99.90;;;;;;7311231;32;20148;-60
2022/08/29 11:22:38;;;;;;;6.95;2.47;;;20.90;99.90;;;;;;7315474;32;20103;-58
2022/08/29 11:26:54;;;;;;;7.12;2.15;;;21.10;99.90;;;;;;7319303;32;20206;-58
2022/08/29 11:31:19;;;;;;;4.97;2.55;;;21.20;99.90;;;;;;7315565;32;20258;-67
2022/08/29 11:35:30;;;;;;;9.55;2.37;;;21.60;99.90;;;;;;7295655;32;20424;-71
2022/08/29 11:39:49;;;;;;;8.07;2.28;;;21.80;99.90;;;;;;7318890;32;20183;-66
2022/08/29 11:43:54;;;;;;;7.75;2.25;;;21.40;99.90;;;;;;7322014;32;20810;-67
2022/08/29 11:47:56;;;;;;;5.10;2.08;;;21.50;99.90;;;;;;7299851;32;20138;-67
2022/08/29 11:52:07;;;;;;;7.18;2.45;;;21.80;99.90;;;;;;7308667;32;20178;-61
2022/08/29 11:56:11;;;;;;;5.90;2.33;;;22.20;97.90;;;;;;7307269;32;20112;-60
2022/08/29 12:00:31;;;;;;;7.85;2.22;;;22.60;98.10;;;;;;7316664;32;20103;-67
2022/08/29 12:04:53;;;;;;;4.00;1.90;;;23.20;97.00;;;;;;7292175;32;20206;-61
2022/08/29 12:09:07;;;;;;;5.20;1.92;;;23.20;96.20;;;;;;7310600;32;20269;-60
2022/08/29 12:13:49;;;;;;;6.28;2.08;;;23.60;94.50;;;;;;7306511;32;20198;-64
2022/08/29 12:18:20;;;;;;;7.13;2.33;;;23.40;93.30;;;;;;7308283;32;20572;-66
2022/08/29 12:22:44;;;;;;;6.30;2.20;;;23.20;93.50;;;;;;7294777;32;20487;-66
2022/08/29 12:26:47;;;;;;;6.32;1.80;;;22.90;94.20;;;;;;7307351;32;20134;-66
2022/08/29 12:31:10;;;;;;;6.85;1.90;;;22.80;96.30;;;;;;7308499;32;20274;-67
2022/08/29 12:35:25;;;;;;;5.97;2.15;;;23.30;94.00;;;;;;7300864;32;20369;-66
2022/08/29 12:39:39;;;;;;;8.82;2.15;;;23.40;92.60;;;;;;7294938;32;20216;-66
2022/08/29 12:43:44;;;;;;;7.60;2.50;;;23.20;93.50;;;;;;7308427;32;20223;-62
2022/08/29 12:48:07;;;;;;;6.68;2.17;;;23.20;92.80;;;;;;7308869;32;20136;-62
2022/08/29 12:52:34;;;;;;;5.82;2.28;;;23.50;92.00;;;;;;7301059;32;20571;-60
2022/08/29 12:56:46;;;;;;;6.70;2.25;;;23.50;92.30;;;;;;7315768;32;20498;-59
2022/08/29 13:00:51;;;;;;;6.90;2.42;;;23.70;91.80;;;;;;7305356;32;20111;-60
2022/08/29 13:04:54;;;;;;;7.03;1.98;;;23.50;91.50;;;;;;7305375;32;20212;-61
2022/08/29 13:08:56;;;;;;;6.45;2.00;;;23.70;91.80;;;;;;7303863;32;20165;-73
2022/08/29 13:13:07;;;;;;;3.90;1.70;;;23.80;91.30;;;;;;7310551;32;20660;-66
2022/08/29 13:17:18;;;;;;;4.53;2.10;;;24.10;91.30;;;;;;7307692;32;20777;-66
2022/08/29 13:21:24;;;;;;;5.43;2.12;;;24.30;90.10;;;;;;7310328;32;20120;-73
2022/08/29 13:25:26;;;;;;;6.00;2.42;;;24.30;89.20;;;;;;7311995;32;20494;-66
2022/08/29 13:29:37;;;;;;;4.32;2.40;;;23.90;86.40;;;;;;7304100;32;20163;-67
2022/08/29 13:34:05;;;;;;;8.85;2.00;;;23.40;87.20;;;;;;7307306;32;20156;-69
2022/08/29 13:38:22;;;;;;;6.60;3.12;;;23.80;88.10;;;;;;7291970;32;20811;-70
2022/08/29 13:42:29;;;;;;;5.82;1.58;;;23.80;85.60;;;;;;7304555;32;20187;-67
2022/08/29 13:46:31;;;;;;;6.30;2.00;;;23.90;85.40;;;;;;7311748;32;20387;-67
2022/08/29 13:50:33;;;;;;;4.70;1.80;;;24.00;85.30;;;;;;7282452;32;20307;-69
2022/08/29 13:54:41;;;;;;;5.43;2.00;;;24.10;81.60;;;;;;7304594;32;20213;-67
2022/08/29 13:58:43;;;;;;;8.23;2.25;;;24.00;81.70;;;;;;7306514;32;20198;-67
2022/08/29 14:02:45;;;;;;;5.15;2.37;;;23.80;81.80;;;;;;7310473;32;20586;-67
2022/08/29 14:06:47;;;;;;;5.37;2.00;;;23.80;81.40;;;;;;7306756;32;20167;-67
2022/08/29 14:10:50;;;;;;;4.35;2.00;;;24.10;83.70;;;;;;7307257;32;20602;-67
2022/08/29 14:14:52;;;;;;;5.85;2.60;;;24.40;82.60;;;;;;7305214;32;20138;-68
2022/08/29 14:18:54;;;;;;;5.45;1.80;;;24.10;78.90;;;;;;7302349;32;20103;-68
2022/08/29 14:22:56;;;;;;;3.72;1.70;;;24.60;76.80;;;;;;7305324;32;20141;-67
2022/08/29 14:26:59;;;;;;;6.97;2.08;;;24.50;79.30;;;;;;7311600;32;20150;-66
2022/08/29 14:31:03;;;;;;;5.30;1.80;;;24.80;78.90;;;;;;7310575;32;20365;-58
2022/08/29 14:35:05;;;;;;;4.93;2.00;;;24.80;77.50;;;;;;7308464;32;20567;-59
2022/08/29 14:39:07;;;;;;;9.13;2.40;;;24.40;78.50;;;;;;7299154;32;20170;-59
2022/08/29 14:43:09;;;;;;;6.65;2.05;;;24.20;76.40;;;;;;7308789;32;20224;-59
2022/08/29 14:47:11;;;;;;;5.00;2.15;;;24.50;77.60;;;;;;7312401;32;20260;-68
2022/08/29 14:51:13;;;;;;;7.12;3.00;;;24.60;77.30;;;;;;7306190;32;20202;-67
2022/08/29 14:55:16;;;;;;;10.38;2.60;;;24.30;75.30;;;;;;7310493;32;20260;-68
2022/08/29 14:59:19;;;;;;;6.40;1.98;;;24.00;73.80;;;;;;7305594;32;20507;-74
2022/08/29 15:03:21;;;;;;;9.48;2.50;;;23.80;75.20;;;;;;7305451;32;20193;-67
2022/08/29 15:07:23;;;;;;;24.65;2.87;;;23.80;75.40;;;;;;7304379;32;20108;-69
2022/08/29 15:11:25;;;;;;;18.37;2.45;;;23.60;76.70;;;;;;7318856;32;20229;-68
2022/08/29 15:15:28;;;;;;;7.18;2.08;;;23.80;75.60;;;;;;7317130;32;20254;-67
2022/08/29 15:19:30;;;;;;;7.75;2.55;;;23.60;73.80;;;;;;7299198;32;20202;-71
2022/08/29 15:23:52;;;;;;;9.82;2.12;;;23.60;73.60;;;;;;7312329;32;20770;-67
2022/08/29 15:27:54;;;;;;;6.35;2.15;;;23.20;72.80;;;;;;7309593;32;20249;-67
2022/08/29 15:32:01;;;;;;;22.95;3.47;;;23.10;74.50;;;;;;7300191;32;20120;-75
2022/08/29 15:36:03;;;;;;;9.70;2.80;;;23.00;76.20;;;;;;7307837;32;20222;-69
2022/08/29 15:40:07;;;;;;;6.68;2.20;;;22.90;75.20;;;;;;7320367;32;20166;-68
2022/08/29 15:44:14;;;;;;;3.80;2.10;;;22.90;75.40;;;;;;7317582;32;20108;-57
2022/08/29 15:48:16;;;;;;;4.43;2.42;;;22.90;77.70;;;;;;7315940;32;20222;-58
2022/08/29 15:52:18;;;;;;;6.65;2.20;;;22.90;76.60;;;;;;7322693;32;20122;-59
2022/08/29 15:56:20;;;;;;;6.47;2.55;;;23.00;78.20;;;;;;7322518;32;20112;-58
2022/08/29 16:00:24;;;;;;;8.63;2.40;;;23.10;78.40;;;;;;7316011;32;20219;-58
2022/08/29 16:04:31;;;;;;;6.45;2.70;;;22.90;73.50;;;;;;7317008;32;20190;-59
2022/08/29 16:08:33;;;;;;;6.18;2.47;;;22.80;74.40;;;;;;7316909;32;20278;-57
2022/08/29 16:12:35;;;;;;;7.62;2.40;;;22.80;74.00;;;;;;7313078;32;20175;-58
2022/08/29 16:16:38;;;;;;;6.15;2.42;;;22.90;73.20;;;;;;7309908;32;20621;-58
2022/08/29 16:20:40;;;;;;;5.00;2.10;;;22.80;73.80;;;;;;7316261;32;20234;-58
2022/08/29 16:24:49;;;;;;;7.47;2.60;;;22.60;74.50;;;;;;7300201;32;20258;-59
2022/08/29 16:28:52;;;;;;;5.53;2.17;;;22.50;74.40;;;;;;7312609;32;20308;-68
2022/08/29 16:32:54;;;;;;;4.28;1.87;;;22.50;76.20;;;;;;7313870;32;20115;-68
2022/08/29 16:36:58;;;;;;;6.45;2.10;;;22.50;76.50;;;;;;7311144;32;20124;-68
2022/08/29 16:41:14;;;;;;;4.87;2.08;;;22.60;77.20;;;;;;7310318;32;20172;-57
2022/08/29 16:45:16;;;;;;;6.40;3.03;;;22.60;77.40;;;;;;7311502;32;20204;-67
2022/08/29 16:49:18;;;;;;;4.72;2.60;;;22.60;77.80;;;;;;7314867;32;20108;-67
2022/08/29 16:53:20;;;;;;;6.05;2.50;;;22.50;79.20;;;;;;7318858;32;20111;-67
2022/08/29 16:57:23;;;;;;;6.05;2.40;;;22.60;78.70;;;;;;7312816;32;20273;-66
2022/08/29 17:01:28;;;;;;;7.03;2.10;;;22.60;79.20;;;;;;7312329;32;20104;-67
2022/08/29 17:05:31;;;;;;;6.55;2.10;;;22.50;79.20;;;;;;7306870;32;20151;-67
2022/08/29 17:17:46;;;;;;;4.97;2.30;;;22.20;83.10;;;;;;7300376;32;20260;-68
2022/08/29 17:21:48;;;;;;;3.20;2.33;;;22.10;83.50;;;;;;7315153;32;20124;-68
2022/08/29 17:25:50;;;;;;;9.80;7.68;;;21.90;84.70;;;;;;7311918;32;20128;-66
2022/08/29 17:29:52;;;;;;;3.58;2.22;;;21.90;85.80;;;;;;7315607;32;20578;-66
2022/08/29 17:33:54;;;;;;;18.52;13.25;;;21.80;86.70;;;;;;7315221;32;20181;-65
2022/08/29 17:37:56;;;;;;;5.37;2.40;;;21.70;89.50;;;;;;7317186;32;20186;-68
2022/08/29 17:41:58;;;;;;;14.25;8.38;;;21.50;90.00;;;;;;7308718;32;20447;-66
2022/08/29 17:46:02;;;;;;;15.13;10.50;;;21.40;91.20;;;;;;7315094;32;20388;-73
2022/08/29 17:50:05;;;;;;;7.70;4.28;;;21.30;93.10;;;;;;7316037;32;20139;-65
2022/08/29 17:54:10;;;;;;;8.70;2.00;;;21.20;94.10;;;;;;7312428;32;20112;-65
2022/08/29 17:58:13;;;;;;;6.47;2.20;;;21.00;93.70;;;;;;7298471;32;20211;-64
2022/08/29 18:02:15;;;;;;;4.53;1.77;;;20.90;96.30;;;;;;7307844;32;20340;-64
2022/08/29 18:06:18;;;;;;;5.37;2.17;;;20.60;98.50;;;;;;7321274;32;20267;-71
2022/08/29 18:10:20;;;;;;;6.82;2.03;;;20.40;99.90;;;;;;7315046;32;20744;-64
2022/08/29 18:14:24;;;;;;;3.72;2.08;;;20.20;99.90;;;;;;7320436;32;20871;-64
2022/08/29 18:18:26;;;;;;;5.28;2.15;;;20.00;99.90;;;;;;7319763;32;20127;-65
2022/08/29 18:22:28;;;;;;;5.32;2.10;;;19.90;99.90;;;;;;7323614;32;20199;-65
2022/08/29 18:26:30;;;;;;;8.02;2.58;;;19.70;99.90;;;;;;7320875;32;20303;-65
2022/08/29 18:30:32;;;;;;;5.87;2.03;;;19.50;99.90;;;;;;7319407;32;20278;-64
2022/08/29 18:34:34;;;;;;;10.40;2.30;;;19.30;99.90;;;;;;7302091;32;20108;-64
2022/08/29 18:38:36;;;;;;;6.47;2.47;;;19.20;99.90;;;;;;7317214;32;20639;-64
2022/08/29 18:42:38;;;;;;;10.68;2.50;;;19.00;99.90;;;;;;7308051;32;20629;-64
2022/08/29 18:46:43;;;;;;;7.12;2.10;;;18.80;99.90;;;;;;7308097;32;20124;-64
2022/08/29 18:50:49;;;;;;;9.38;2.67;;;18.60;99.90;;;;;;7315308;32;20398;-63
2022/08/29 18:54:52;;;;;;;6.18;2.55;;;18.40;99.90;;;;;;7306965;32;20229;-59
2022/08/29 18:58:55;;;;;;;12.05;2.55;;;18.30;99.90;;;;;;7316664;32;20137;-60
2022/08/29 19:03:01;;;;;;;8.85;2.15;;;18.00;99.90;;;;;;7303523;32;20304;-60
2022/08/29 19:07:04;;;;;;;6.55;2.40;;;17.80;99.90;;;;;;7308424;32;20230;-61
2022/08/29 19:11:06;;;;;;;4.47;2.20;;;17.70;99.90;;;;;;7316072;32;20169;-59
2022/08/29 19:15:10;;;;;;;6.57;2.92;;;17.50;99.90;;;;;;7316217;32;20559;-59
2022/08/29 19:19:11;;;;;;;6.93;3.47;;;17.30;99.90;;;;;;7316907;32;20310;-61
2022/08/29 19:23:15;;;;;;;6.87;3.40;;;17.20;99.90;;;;;;7315509;32;20136;-59
2022/08/29 19:27:17;;;;;;;6.05;2.05;;;17.10;99.90;;;;;;7318437;32;20438;-60
2022/08/29 19:31:40;;;;;;;8.90;2.60;;;17.00;99.90;;;;;;7297899;32;20490;-60
2022/08/29 19:35:43;;;;;;;12.80;2.83;;;16.80;99.90;;;;;;7317962;32;20172;-60
2022/08/29 19:39:45;;;;;;;6.30;2.60;;;16.70;99.90;;;;;;7316235;32;20138;-60
2022/08/29 19:43:47;;;;;;;7.18;2.40;;;16.60;99.90;;;;;;7306580;32;20684;-61
2022/08/29 19:47:50;;;;;;;7.22;2.60;;;16.60;99.90;;;;;;7318354;32;20596;-60
2022/08/29 19:52:00;;;;;;;4.95;2.40;;;16.50;99.90;;;;;;7314050;32;20177;-62
2022/08/29 19:56:02;;;;;;;5.40;2.53;;;16.40;99.90;;;;;;7305150;32;20238;-59
2022/08/29 20:00:09;;;;;;;5.43;2.30;;;16.30;99.90;;;;;;7308678;32;20103;-61
2022/08/29 20:04:14;;;;;;;6.60;2.78;;;16.20;99.90;;;;;;7314004;32;20134;-61
2022/08/29 20:08:17;;;;;;;8.45;2.90;;;16.10;99.90;;;;;;7299494;32;20107;-60
2022/08/29 20:12:21;;;;;;;15.93;11.02;;;16.00;99.90;;;;;;7312298;32;20138;-61
2022/08/29 20:16:30;;;;;;;6.70;2.83;;;15.90;99.90;;;;;;7314186;32;20191;-63
2022/08/29 20:20:34;;;;;;;6.43;2.35;;;15.80;99.90;;;;;;7301407;32;20211;-61
2022/08/29 20:24:36;;;;;;;5.45;2.40;;;15.70;99.90;;;;;;7318134;32;20119;-61
2022/08/29 20:28:39;;;;;;;7.60;2.62;;;15.60;99.90;;;;;;7310046;32;20130;-63
2022/08/29 20:32:41;;;;;;;11.38;2.37;;;15.50;99.90;;;;;;7300898;32;20574;-60
2022/08/29 20:41:07;;;;;;;6.05;2.50;;;15.30;99.90;;;;;;7312585;32;20115;-60
2022/08/29 20:45:09;;;;;;;5.40;2.10;;;15.20;99.90;;;;;;7303137;32;20116;-61
2022/08/29 20:49:13;;;;;;;3.67;1.80;;;15.10;99.90;;;;;;7319111;32;20115;-62
2022/08/29 20:53:15;;;;;;;11.73;2.42;;;15.10;99.90;;;;;;7300459;32;20579;-62
2022/08/29 20:57:32;;;;;;;8.90;2.50;;;15.00;99.90;;;;;;7317119;32;20218;-61
2022/08/29 21:01:34;;;;;;;7.72;2.30;;;15.00;99.90;;;;;;7297679;32;20257;-62
2022/08/29 21:05:43;;;;;;;7.85;2.50;;;15.00;99.90;;;;;;7301002;32;20123;-61
2022/08/29 21:09:49;;;;;;;4.43;2.30;;;15.00;99.90;;;;;;7308631;32;20295;-61
2022/08/29 21:13:50;;;;;;;5.70;2.28;;;15.00;99.90;;;;;;7314705;32;20551;-61
2022/08/29 21:17:54;;;;;;;6.25;2.65;;;15.00;99.90;;;;;;7302126;32;20570;-61
2022/08/29 21:21:58;;;;;;;7.68;2.35;;;15.00;99.90;;;;;;7309620;32;20155;-60
2022/08/29 21:26:00;;;;;;;8.15;2.58;;;15.00;99.90;;;;;;7316807;32;20202;-60
2022/08/29 21:30:03;;;;;;;10.05;2.45;;;15.00;99.90;;;;;;7309259;32;20158;-61
2022/08/29 21:34:09;;;;;;;5.25;2.40;;;15.10;99.90;;;;;;7308593;32;20139;-60
2022/08/29 21:38:11;;;;;;;9.85;2.20;;;15.00;99.90;;;;;;7314548;32;20606;-60